Nikolai, Alaska
Current Conditions -  °F | °C
As of 12:56 AM on Friday 31 Oct 2014 (Local Time) from PAFS Reporting Station
Light Snow Light Snow  
Wind Chill:   Ceiling: 1500
Heat Index:   Visibility: 10mi
Dew Point:   Wind: 0mph
Humidity: 84%   Direction: NA
Pressure: 29.55"   Gusts: NA
Location:  63.01°N, 154.38°W
Report Text: PAFS 310856Z AUTO 00000KT 10SM -SN FEW002 BKN015 OVC020 M16/M18 A2955 RMK AO2 TSNO 57025 60000 T11551177 411111222 BKN V OVC SNB08 P0000 SLP024 $
Loading
Personal Weather Stations






























Interactive Weather Map
Tropical Storm Tracking
New forecast layout! Learn more

10-Day Weather Forecast

Advertisements
Track Severe Weather on mobile